Weather at Timberon Airport

Public forecast

Using degrees Fahrenheit for public forecast. Weather courtesy of forecast.io.

Closest aviation weather report (METAR) to Timberon Airport

Closest report is Alamogordo White Sands Regional Airport, 19.7 nm (36.5 km) NW. Retrieved 2021/12/01 12:35 UTC (13 minutes ago):

KALM 011235Z AUTO 23003KT 10SM FEW037 01/M08 A3025 RMK AO2

Closest aviation forecast (TAF) to Timberon Airport

Closest forecast is Holloman Air Force Base, 24.9 nm (46.2 km) WNW. Retrieved 2021/12/01 09:03 UTC (4 hours ago):

TAF KHMN 010900Z 0109/0215 VRB06KT 9999 FEW220 QNH3018INS TX22/0122Z TN00/0113Z